Time;durP1;ratioP1;P1;durP2;ratioP2;P2;SDS_P1;SDS_P2;PMS_P1;PMS_P2;Temp;Humidity;BMP_temperature;BMP_pressure;BME280_temperature;BME280_humidity;BME280_pressure;Samples;Min_cycle;Max_cycle;Signal;HPM_P1;HPM_P2
2022/09/27 00:01:33;;;;;;;;;4.00;2.33;;;;;13.79;61.36;99853.88;5070727;28;45252;-71
2022/09/27 00:03:59;;;;;;;;;1.00;1.00;;;;;13.81;61.64;99874.47;5069664;28;45496;-66
2022/09/27 00:06:27;;;;;;;;;0.33;0.00;;;;;13.89;61.72;99885.22;5072742;28;45569;-66
2022/09/27 00:08:54;;;;;;;;;3.00;1.67;;;;;13.66;61.05;99857.47;5072448;28;45841;-67
2022/09/27 00:11:25;;;;;;;;;1.00;1.00;;;;;13.87;61.14;99888.78;5073439;28;45566;-68
2022/09/27 00:13:50;;;;;;;;;1.67;1.67;;;;;13.70;60.84;99861.97;5063263;28;45470;-71
2022/09/27 00:16:16;;;;;;;;;1.00;1.00;;;;;13.90;60.75;99897.72;5073518;28;45683;-65
2022/09/27 00:18:41;;;;;;;;;2.00;2.00;;;;;13.72;60.81;99865.53;5072162;28;45289;-67
2022/09/27 00:21:10;;;;;;;;;2.67;1.33;;;;;13.47;61.16;99821.72;5072815;28;45614;-64
2022/09/27 00:23:35;;;;;;;;;0.67;0.67;;;;;13.75;61.36;99876.28;5072493;28;45527;-67
2022/09/27 00:26:01;;;;;;;;;3.00;2.00;;;;;13.64;61.37;99866.44;5072640;28;45562;-69
2022/09/27 00:28:26;;;;;;;;;2.67;2.00;;;;;13.79;61.33;99900.44;5072160;28;45471;-66
2022/09/27 00:30:52;;;;;;;;;4.00;1.00;;;;;13.54;61.30;99858.38;5073139;28;45627;-65
2022/09/27 00:33:18;;;;;;;;;1.00;1.00;;;;;13.77;61.54;99899.53;5072956;28;45508;-65
2022/09/27 00:35:43;;;;;;;;;2.33;1.00;;;;;13.80;62.00;99915.63;5071834;28;46859;-65
2022/09/27 00:38:09;;;;;;;;;2.67;1.00;;;;;13.78;61.66;99912.06;5072304;28;46152;-66
2022/09/27 00:40:35;;;;;;;;;0.00;0.00;;;;;13.59;61.52;99873.56;5072390;28;45533;-64
2022/09/27 00:43:00;;;;;;;;;1.00;0.67;;;;;13.75;62.28;99900.44;5070074;28;45603;-67
2022/09/27 00:45:26;;;;;;;;;1.00;1.00;;;;;13.73;62.01;99908.50;5071532;28;45535;-66
2022/09/27 00:47:59;;;;;;;;;2.67;2.00;;;;;13.75;62.46;99916.53;5086579;27;46550;-66
2022/09/27 00:50:38;;;;;;;;;1.00;1.00;;;;;13.72;63.46;99920.09;5093218;27;45379;-65
2022/09/27 00:53:03;;;;;;;;;4.67;1.00;;;;;13.65;63.22;99918.31;5088654;27;45412;-66
2022/09/27 00:55:37;;;;;;;;;4.00;2.00;;;;;13.62;64.33;99926.38;5090092;27;45460;-67
2022/09/27 00:58:04;;;;;;;;;3.33;2.00;;;;;13.58;63.83;99914.75;5093840;27;45320;-66
2022/09/27 01:00:30;;;;;;;;;2.33;1.00;;;;;13.56;64.67;99910.25;5093914;27;45554;-66
2022/09/27 01:02:56;;;;;;;;;3.33;2.67;;;;;13.63;64.07;99926.38;5093157;27;45691;-65
2022/09/27 01:05:24;;;;;;;;;2.00;1.00;;;;;13.64;64.00;99927.25;5091034;27;45653;-65
2022/09/27 01:07:49;;;;;;;;;4.67;3.00;;;;;13.61;63.96;99938.91;5091595;27;45416;-67
2022/09/27 01:10:17;;;;;;;;;1.00;1.00;;;;;13.58;64.70;99921.91;5092180;27;45471;-65
2022/09/27 01:13:03;;;;;;;;;2.00;1.00;;;;;13.63;64.65;99936.22;5092079;27;45790;-66
2022/09/27 01:15:37;;;;;;;;;3.33;2.00;;;;;13.70;64.79;99938.00;5091206;27;45317;-66
2022/09/27 01:18:34;;;;;;;;;2.67;0.67;;;;;13.71;64.20;99933.53;5090627;27;45946;-65
2022/09/27 01:21:27;;;;;;;;;3.33;2.00;;;;;13.68;64.79;99933.53;5057347;27;45546;-67
2022/09/27 01:24:17;;;;;;;;;1.00;1.00;;;;;13.59;64.23;99942.47;5087236;27;45742;-66
2022/09/27 01:26:45;;;;;;;;;1.67;0.33;;;;;13.53;64.58;99937.09;5091506;27;45739;-66
2022/09/27 01:29:54;;;;;;;;;1.00;0.00;;;;;13.51;65.21;99944.25;5094035;27;46163;-66
2022/09/27 01:32:25;;;;;;;;;2.00;1.00;;;;;13.47;64.38;99942.47;5092491;27;45521;-65
2022/09/27 01:34:51;;;;;;;;;3.67;1.00;;;;;13.45;65.32;99940.66;5096787;27;45586;-66
2022/09/27 01:37:44;;;;;;;;;1.00;1.00;;;;;13.42;65.07;99937.97;5110981;27;45199;-65
2022/09/27 01:40:23;;;;;;;;;3.00;1.00;;;;;13.39;65.28;99943.34;5090934;27;46973;-71
2022/09/27 01:43:02;;;;;;;;;2.00;0.67;;;;;13.35;65.83;99944.22;5097193;27;45386;-65
2022/09/27 01:45:37;;;;;;;;;6.00;1.00;;;;;13.31;64.99;99946.88;5099213;27;45594;-66
2022/09/27 01:48:09;;;;;;;;;3.00;0.00;;;;;13.27;65.59;99945.97;5096557;27;45522;-65
2022/09/27 01:50:47;;;;;;;;;0.00;0.00;;;;;13.21;65.60;99940.56;5096691;27;46563;-64
2022/09/27 01:53:12;;;;;;;;;2.00;2.00;;;;;13.20;65.73;99944.13;5091818;27;45782;-66
2022/09/27 01:55:39;;;;;;;;;0.33;0.33;;;;;13.10;65.80;99935.19;5095699;27;45519;-71
2022/09/27 01:58:27;;;;;;;;;1.00;1.00;;;;;13.16;65.38;99943.25;5095348;27;45790;-66
2022/09/27 02:00:54;;;;;;;;;0.00;0.00;;;;;13.21;66.05;99941.47;5094468;27;45474;-65
2022/09/27 02:03:25;;;;;;;;;2.00;1.00;;;;;13.14;65.69;99942.34;5092125;27;45574;-65
2022/09/27 02:05:58;;;;;;;;;2.33;2.33;;;;;13.15;65.59;99954.88;5096671;27;45488;-67
2022/09/27 02:08:40;;;;;;;;;2.67;0.00;;;;;13.19;65.96;99953.09;5095220;27;45459;-65
2022/09/27 02:11:10;;;;;;;;;2.00;0.33;;;;;12.98;65.27;99906.53;5092863;27;45650;-64
2022/09/27 02:13:44;;;;;;;;;1.00;1.00;;;;;13.24;65.72;99948.63;5077551;27;45437;-65
2022/09/27 02:16:21;;;;;;;;;0.00;0.00;;;;;13.21;65.26;99943.25;5093196;27;45641;-66
2022/09/27 02:18:52;;;;;;;;;2.67;1.33;;;;;13.20;66.02;99946.81;5095708;27;45442;-66
2022/09/27 02:21:19;;;;;;;;;2.33;0.00;;;;;13.21;65.01;99945.94;5092366;27;46203;-66
2022/09/27 02:23:49;;;;;;;;;5.00;1.00;;;;;13.15;65.59;99929.81;5089122;27;45590;-65
2022/09/27 02:26:37;;;;;;;;;3.67;0.33;;;;;13.01;65.32;99902.97;5093535;27;46293;-65
2022/09/27 02:29:06;;;;;;;;;0.00;0.00;;;;;13.24;65.09;99933.44;5092331;27;45328;-66
2022/09/27 02:31:31;;;;;;;;;2.00;1.00;;;;;12.96;65.49;99886.88;5094271;27;46112;-69
2022/09/27 02:34:05;;;;;;;;;1.00;0.00;;;;;13.22;65.00;99931.66;5094104;27;45439;-65
2022/09/27 02:36:31;;;;;;;;;0.00;0.00;;;;;13.11;64.44;99910.16;5092961;27;45458;-66
2022/09/27 02:38:57;;;;;;;;;2.00;0.00;;;;;13.21;65.28;99935.22;5094957;27;45495;-65
2022/09/27 02:41:22;;;;;;;;;0.00;0.00;;;;;13.14;64.89;99920.00;5094880;27;45502;-65
2022/09/27 02:43:53;;;;;;;;;2.67;1.00;;;;;13.12;65.65;99927.16;5099512;27;45539;-65
2022/09/27 02:46:55;;;;;;;;;4.00;0.00;;;;;13.16;64.59;99945.03;5092485;27;45586;-65
2022/09/27 02:49:29;;;;;;;;;3.33;1.00;;;;;13.02;65.26;99902.09;5094104;27;45366;-65
2022/09/27 02:52:21;;;;;;;;;1.00;0.00;;;;;13.24;65.08;99936.13;5099983;27;46275;-68
2022/09/27 02:55:20;;;;;;;;;1.67;1.00;;;;;13.32;64.65;99937.94;5070841;27;45533;-70
2022/09/27 02:58:03;;;;;;;;;2.33;1.33;;;;;13.13;64.69;99891.38;5093860;27;45736;-64
2022/09/27 03:00:51;;;;;;;;;1.00;0.67;;;;;13.22;66.18;99927.16;5094326;27;45434;-65
2022/09/27 03:03:21;;;;;;;;;2.00;0.00;;;;;13.25;65.77;99947.75;5092206;27;45650;-66
2022/09/27 03:05:53;;;;;;;;;1.00;0.00;;;;;13.24;66.01;99937.91;5093858;27;45322;-71
2022/09/27 03:08:19;;;;;;;;;3.33;1.00;;;;;13.17;66.29;99941.47;5092257;27;45808;-66
2022/09/27 03:10:44;;;;;;;;;1.00;1.00;;;;;13.14;67.51;99933.41;5095668;27;47116;-66
2022/09/27 03:13:10;;;;;;;;;0.33;0.33;;;;;12.78;66.31;99874.31;5093814;27;46821;-66
2022/09/27 03:15:35;;;;;;;;;2.00;1.00;;;;;12.92;66.65;99895.81;5094571;27;46623;-65
2022/09/27 03:18:01;;;;;;;;;1.00;0.00;;;;;13.16;67.29;99939.69;5095559;27;45326;-66
2022/09/27 03:20:26;;;;;;;;;1.00;1.00;;;;;13.19;67.40;99947.72;5095090;27;45505;-68
2022/09/27 03:22:52;;;;;;;;;2.33;1.00;;;;;13.17;67.46;99931.63;5094127;27;45474;-66
2022/09/27 03:25:18;;;;;;;;;4.00;1.00;;;;;13.13;68.83;99913.72;5093811;27;45492;-65
2022/09/27 03:27:44;;;;;;;;;2.00;1.00;;;;;13.25;68.69;99924.50;5095710;27;45386;-65
2022/09/27 03:30:11;;;;;;;;;2.67;1.67;;;;;13.31;68.35;99933.44;5096292;27;45568;-65
2022/09/27 03:32:41;;;;;;;;;0.67;0.67;;;;;13.31;68.79;99920.94;5094730;27;45356;-64
2022/09/27 03:35:06;;;;;;;;;0.33;0.33;;;;;13.36;69.26;99935.28;5093128;27;45590;-67
2022/09/27 03:37:32;;;;;;;;;2.00;0.67;;;;;13.23;69.30;99912.88;5094408;27;45526;-67
2022/09/27 03:39:57;;;;;;;;;4.67;0.00;;;;;13.26;68.88;99920.94;5091769;27;45603;-70
2022/09/27 03:42:23;;;;;;;;;1.00;1.00;;;;;13.36;69.28;99937.94;5094054;27;46108;-66
2022/09/27 03:44:50;;;;;;;;;0.67;0.00;;;;;13.36;69.40;99943.31;5091838;27;45437;-70
2022/09/27 03:47:15;;;;;;;;;0.00;0.00;;;;;13.32;69.68;99938.84;5093395;27;45692;-69
2022/09/27 03:49:40;;;;;;;;;2.33;1.00;;;;;13.02;69.94;99886.91;5093680;27;45300;-67
2022/09/27 03:52:06;;;;;;;;;3.67;1.00;;;;;13.24;69.51;99917.34;5094104;27;46887;-67
2022/09/27 03:54:32;;;;;;;;;2.00;0.00;;;;;13.29;69.33;99920.03;5093832;27;45655;-66
2022/09/27 03:56:57;;;;;;;;;1.33;1.00;;;;;12.94;69.00;99852.94;5089648;27;46683;-69
2022/09/27 03:59:23;;;;;;;;;0.33;0.33;;;;;13.40;69.28;99934.41;5092715;27;45344;-66
2022/09/27 04:01:48;;;;;;;;;1.00;1.00;;;;;13.21;68.77;99886.94;5091783;27;46492;-69
2022/09/27 04:04:13;;;;;;;;;0.00;0.00;;;;;13.42;68.78;99929.03;5092012;27;45440;-66
2022/09/27 04:06:39;;;;;;;;;1.00;1.00;;;;;13.18;69.13;99881.56;5093360;27;45944;-66
2022/09/27 04:09:04;;;;;;;;;1.00;1.00;;;;;13.42;68.49;99919.19;5093178;27;45582;-65
2022/09/27 04:11:29;;;;;;;;;1.67;0.33;;;;;13.18;68.38;99886.94;5092234;27;57661;-65
2022/09/27 04:13:55;;;;;;;;;2.00;2.00;;;;;13.38;68.46;99922.78;5085919;27;46047;-65
2022/09/27 04:16:20;;;;;;;;;0.67;0.00;;;;;13.09;68.74;99864.56;5092467;27;45708;-66
2022/09/27 04:18:46;;;;;;;;;2.67;1.00;;;;;13.29;68.22;99906.63;5095107;27;45371;-66
2022/09/27 04:21:11;;;;;;;;;1.33;1.33;;;;;13.20;68.24;99893.19;5092679;27;45420;-72
2022/09/27 04:23:37;;;;;;;;;0.00;0.00;;;;;13.24;68.67;99911.09;5094101;27;45680;-67
2022/09/27 04:26:06;;;;;;;;;1.67;0.00;;;;;13.18;68.42;99913.75;5092325;27;45445;-64
2022/09/27 04:28:32;;;;;;;;;1.00;1.00;;;;;13.12;68.39;99903.91;5093200;27;45377;-65
2022/09/27 04:30:57;;;;;;;;;0.67;0.67;;;;;13.11;68.44;99911.94;5094376;27;45366;-65
2022/09/27 04:33:23;;;;;;;;;1.00;0.00;;;;;13.03;68.66;99894.06;5094398;27;45472;-64
2022/09/27 04:38:32;;;;;;;;;1.00;1.00;;;;;13.09;68.01;99912.84;5092086;27;45544;-68
2022/09/27 04:41:00;;;;;;;;;3.00;1.00;;;;;13.08;68.51;99905.69;5093217;27;48074;-66
2022/09/27 04:43:25;;;;;;;;;1.00;1.00;;;;;13.12;68.47;99906.59;5092962;27;45465;-64
2022/09/27 04:45:50;;;;;;;;;1.00;1.00;;;;;13.08;69.60;99903.00;5091332;27;47834;-67
2022/09/27 04:48:16;;;;;;;;;2.00;1.33;;;;;13.04;69.49;99900.31;5074340;27;45492;-65
2022/09/27 04:50:41;;;;;;;;;0.00;0.00;;;;;13.13;69.50;99910.16;5072129;28;46747;-66
2022/09/27 04:53:06;;;;;;;;;0.00;0.00;;;;;13.20;68.82;99906.59;5071825;28;49080;-67
2022/09/27 04:55:33;;;;;;;;;4.00;1.00;;;;;12.99;68.72;99870.81;5073552;28;45556;-66
2022/09/27 04:58:00;;;;;;;;;0.67;0.67;;;;;13.12;68.90;99908.41;5071031;28;45483;-64
2022/09/27 05:00:27;;;;;;;;;3.00;1.67;;;;;13.05;68.76;99892.28;5065297;28;45637;-68
2022/09/27 05:02:52;;;;;;;;;4.00;2.33;;;;;12.83;68.15;99842.16;5072624;28;45254;-65
2022/09/27 05:05:18;;;;;;;;;1.00;1.00;;;;;13.31;68.52;99910.19;5070985;28;45540;-66
2022/09/27 05:07:43;;;;;;;;;1.00;1.00;;;;;13.01;68.01;99860.09;5071992;28;45436;-66
2022/09/27 05:10:08;;;;;;;;;2.00;0.00;;;;;13.21;68.23;99909.28;5070407;28;46296;-64
2022/09/27 05:12:34;;;;;;;;;0.00;0.00;;;;;13.38;68.25;99932.59;5071263;28;45507;-66
2022/09/27 05:15:00;;;;;;;;;1.00;1.00;;;;;13.42;68.91;99929.91;5043610;28;47316;-67
2022/09/27 05:17:26;;;;;;;;;2.33;2.33;;;;;13.44;69.70;99924.56;5072533;28;45442;-67
2022/09/27 05:19:51;;;;;;;;;1.67;1.00;;;;;13.23;69.80;99880.69;5068749;28;46292;-65
2022/09/27 05:22:17;;;;;;;;;1.00;1.00;;;;;13.45;69.82;99900.41;5073212;28;45448;-67
2022/09/27 05:24:42;;;;;;;;;5.00;3.00;;;;;13.45;68.53;99915.63;5072932;27;45678;-66
2022/09/27 05:27:12;;;;;;;;;1.00;1.00;;;;;13.26;69.69;99895.88;5068929;28;45648;-65
2022/09/27 05:29:37;;;;;;;;;3.33;1.67;;;;;13.35;68.61;99914.72;5068006;28;45688;-65
2022/09/27 05:32:03;;;;;;;;;2.33;1.33;;;;;13.22;69.44;99900.34;5065299;28;46724;-65
2022/09/27 05:34:31;;;;;;;;;0.67;0.67;;;;;13.09;69.29;99880.66;5072106;28;46123;-65
2022/09/27 05:36:57;;;;;;;;;3.00;1.67;;;;;12.96;69.63;99865.44;5071145;28;45511;-65
2022/09/27 05:39:23;;;;;;;;;3.00;1.00;;;;;13.25;69.59;99926.31;5077690;28;46091;-64
2022/09/27 05:41:49;;;;;;;;;0.00;0.00;;;;;13.06;69.98;99907.47;5077417;28;44859;-67
2022/09/27 05:44:15;;;;;;;;;2.00;1.00;;;;;13.06;70.82;99895.84;5069583;28;45571;-66
2022/09/27 05:46:41;;;;;;;;;3.00;0.67;;;;;12.89;70.43;99888.66;5083818;27;45577;-65
2022/09/27 05:49:06;;;;;;;;;3.33;2.00;;;;;12.66;71.10;99837.66;5089041;28;45042;-66
2022/09/27 05:51:31;;;;;;;;;3.00;2.00;;;;;12.80;70.85;99853.78;5084516;28;45404;-67
2022/09/27 05:53:57;;;;;;;;;3.00;3.00;;;;;13.21;71.04;99919.13;5086990;28;45064;-64
2022/09/27 05:56:23;;;;;;;;;5.33;5.33;;;;;13.18;70.41;99911.97;5087789;28;45064;-64
2022/09/27 05:58:49;;;;;;;;;3.33;3.33;;;;;13.23;70.12;99909.28;5088143;28;47004;-66
2022/09/27 06:01:15;;;;;;;;;4.00;3.00;;;;;13.33;70.80;99908.47;5086228;28;45078;-67
2022/09/27 06:03:41;;;;;;;;;2.33;1.00;;;;;12.97;69.24;99837.75;5070313;28;45323;-68
2022/09/27 06:06:09;;;;;;;;;2.67;1.00;;;;;13.34;69.67;99903.97;5091311;28;45036;-66
2022/09/27 06:08:37;;;;;;;;;2.00;2.00;;;;;12.94;69.72;99828.81;5084688;28;46160;-68
2022/09/27 06:11:08;;;;;;;;;2.00;2.00;;;;;13.28;70.07;99883.34;5089429;27;45259;-68
2022/09/27 06:13:38;;;;;;;;;3.00;3.00;;;;;13.05;69.56;99852.06;5092013;28;45157;-66
2022/09/27 06:16:04;;;;;;;;;3.33;1.00;;;;;13.13;69.23;99865.44;5094501;28;45279;-66
2022/09/27 06:18:30;;;;;;;;;4.00;2.00;;;;;13.24;69.52;99886.94;5090787;28;45510;-66
2022/09/27 06:20:58;;;;;;;;;3.00;2.00;;;;;12.99;69.38;99837.75;5092241;28;45703;-70
2022/09/27 06:23:24;;;;;;;;;1.00;1.00;;;;;12.95;68.56;99831.50;5074286;28;45457;-66
2022/09/27 06:25:50;;;;;;;;;3.00;2.00;;;;;13.45;69.45;99921.88;5078491;28;45481;-67
2022/09/27 06:28:18;;;;;;;;;2.67;2.67;;;;;13.46;69.22;99914.72;5075758;28;46204;-70
2022/09/27 06:30:48;;;;;;;;;4.33;1.67;;;;;13.47;68.29;99916.53;5076692;28;45605;-66
2022/09/27 06:33:15;;;;;;;;;0.33;0.33;;;;;13.37;69.39;99894.16;5080337;28;45253;-66
2022/09/27 06:35:44;;;;;;;;;1.00;1.00;;;;;13.42;69.50;99915.63;5071853;28;45418;-67
2022/09/27 06:38:11;;;;;;;;;3.00;2.00;;;;;13.39;69.16;99919.19;5073024;28;46215;-66
2022/09/27 06:40:36;;;;;;;;;2.00;2.00;;;;;13.30;69.68;99907.50;5072724;28;45451;-66
2022/09/27 06:43:08;;;;;;;;;4.00;2.00;;;;;13.35;69.72;99912.03;5074327;28;45548;-67
2022/09/27 06:45:35;;;;;;;;;2.00;2.00;;;;;13.33;69.46;99900.41;5080334;28;45286;-64
2022/09/27 06:48:04;;;;;;;;;3.67;3.67;;;;;13.44;69.83;99917.41;5089818;27;45557;-74
2022/09/27 06:50:35;;;;;;;;;2.33;2.33;;;;;13.46;69.76;99909.34;5094114;27;45505;-66
2022/09/27 06:53:03;;;;;;;;;2.00;2.00;;;;;13.45;69.37;99913.84;5093315;27;45469;-67
2022/09/27 06:55:28;;;;;;;;;3.33;2.00;;;;;13.50;68.97;99910.28;5094946;27;45485;-72
2022/09/27 07:00:38;;;;;;;;;2.67;2.00;;;;;13.48;69.04;99906.66;5095104;27;45363;-67
2022/09/27 07:03:03;;;;;;;;;0.67;0.67;;;;;13.14;68.28;99848.47;5094311;27;45572;-69
2022/09/27 07:05:29;;;;;;;;;2.00;2.00;;;;;13.57;68.69;99920.09;5095166;27;45406;-67
2022/09/27 07:07:56;;;;;;;;;4.00;2.00;;;;;13.45;68.46;99899.53;5094843;27;46331;-67
2022/09/27 07:10:27;;;;;;;;;4.00;2.33;;;;;13.43;68.03;99910.25;5094883;27;45587;-65
2022/09/27 07:12:53;;;;;;;;;3.00;2.00;;;;;13.40;67.97;99912.94;5094987;27;45501;-68
2022/09/27 07:15:22;;;;;;;;;2.00;2.00;;;;;13.16;68.17;99852.06;5094829;27;45286;-68
2022/09/27 07:17:56;;;;;;;;;4.33;2.33;;;;;13.20;68.27;99867.28;5093182;27;46274;-66
2022/09/27 07:20:22;;;;;;;;;1.67;1.67;;;;;13.53;67.66;99913.84;5095102;27;45449;-66
2022/09/27 07:22:48;;;;;;;;;1.00;1.00;;;;;13.72;67.30;99949.63;5094647;27;45574;-72
2022/09/27 07:25:13;;;;;;;;;2.67;1.00;;;;;13.72;67.64;99954.13;5095280;27;45609;-67
2022/09/27 07:27:40;;;;;;;;;2.00;2.00;;;;;13.58;67.46;99938.91;5095338;27;46221;-65
2022/09/27 07:30:07;;;;;;;;;0.67;0.67;;;;;13.72;67.99;99949.63;5094557;27;45385;-67
2022/09/27 07:32:34;;;;;;;;;1.00;1.00;;;;;13.56;67.63;99924.59;5095146;27;45448;-64
2022/09/27 07:35:00;;;;;;;;;1.00;1.00;;;;;13.67;67.31;99955.91;5094860;27;45506;-64
2022/09/27 07:37:25;;;;;;;;;1.00;1.00;;;;;13.72;67.85;99963.06;5094784;27;46078;-64
2022/09/27 07:39:50;;;;;;;;;1.00;1.00;;;;;13.74;67.98;99965.75;5094820;27;45289;-67
2022/09/27 07:42:16;;;;;;;;;2.00;0.67;;;;;13.74;67.93;99960.38;5094830;27;45274;-67
2022/09/27 07:44:41;;;;;;;;;1.00;1.00;;;;;13.75;67.80;99965.75;5095386;27;45480;-65
2022/09/27 07:47:07;;;;;;;;;2.33;1.33;;;;;13.76;67.94;99963.94;5094851;27;45562;-66
2022/09/27 07:49:32;;;;;;;;;1.00;1.00;;;;;13.75;67.21;99957.69;5095104;27;45476;-65
2022/09/27 07:51:57;;;;;;;;;2.00;2.00;;;;;13.53;67.63;99911.16;5095019;27;45332;-68
2022/09/27 07:54:23;;;;;;;;;3.00;3.00;;;;;13.54;67.76;99915.63;5094699;27;45228;-65
2022/09/27 07:56:48;;;;;;;;;2.00;2.00;;;;;13.81;67.24;99962.19;5093821;27;45471;-68
2022/09/27 07:59:13;;;;;;;;;1.33;1.33;;;;;13.92;67.28;99980.97;5094456;27;45326;-64
2022/09/27 08:01:39;;;;;;;;;3.00;3.00;;;;;13.76;67.11;99945.16;5093188;27;45376;-67
2022/09/27 08:04:04;;;;;;;;;2.00;2.00;;;;;13.92;66.49;99980.97;5093602;27;45583;-69
2022/09/27 08:06:30;;;;;;;;;2.33;2.00;;;;;14.01;67.31;99981.88;5094259;27;45813;-65
2022/09/27 08:08:56;;;;;;;;;1.00;1.00;;;;;14.14;66.73;99990.84;5094379;27;45389;-65
2022/09/27 08:11:21;;;;;;;;;1.00;1.00;;;;;14.04;66.43;99967.56;5094204;27;45560;-64
2022/09/27 08:13:48;;;;;;;;;2.00;1.00;;;;;14.15;66.35;99992.59;5094761;27;45292;-68
2022/09/27 08:16:14;;;;;;;;;5.00;2.00;;;;;13.98;66.31;99964.88;5093927;27;46028;-67
2022/09/27 08:18:39;;;;;;;;;3.33;1.33;;;;;14.14;65.65;99987.25;5093978;27;45453;-66
2022/09/27 08:21:05;;;;;;;;;2.33;2.00;;;;;14.23;66.10;99992.59;5094438;27;46046;-67
2022/09/27 08:23:30;;;;;;;;;2.00;2.00;;;;;14.07;65.41;99961.28;5094961;27;45466;-67
2022/09/27 08:25:58;;;;;;;;;4.33;0.00;;;;;14.15;66.08;99976.47;5093081;27;46865;-65
2022/09/27 08:28:27;;;;;;;;;3.00;3.00;;;;;14.23;65.57;99980.97;5094263;27;45446;-67
2022/09/27 08:30:52;;;;;;;;;2.00;2.00;;;;;14.32;65.39;99994.38;5094056;27;45363;-67
2022/09/27 08:33:18;;;;;;;;;1.00;1.00;;;;;14.41;65.12;100002.44;5092680;27;45323;-66
2022/09/27 08:35:43;;;;;;;;;1.00;1.00;;;;;14.24;65.06;99978.28;5086507;27;45574;-67
2022/09/27 08:38:10;;;;;;;;;4.00;2.67;;;;;14.45;65.15;100008.69;5093749;27;45560;-65
2022/09/27 08:40:50;;;;;;;;;1.00;0.67;;;;;14.47;64.71;100007.81;5094204;27;45433;-67
2022/09/27 08:43:26;;;;;;;;;2.00;2.00;;;;;14.49;64.28;100014.06;5093880;27;45503;-64
2022/09/27 08:46:18;;;;;;;;;2.33;1.00;;;;;14.48;64.40;100020.34;5093841;27;45549;-65
2022/09/27 08:48:50;;;;;;;;;1.67;1.33;;;;;14.50;63.85;100014.97;5058125;28;45601;-67
2022/09/27 08:51:20;;;;;;;;;1.00;1.00;;;;;14.50;63.86;100015.88;5073704;28;45596;-67
2022/09/27 08:53:52;;;;;;;;;7.00;2.00;;;;;14.36;64.02;99990.81;5072965;28;45458;-65
2022/09/27 08:56:20;;;;;;;;;2.67;2.33;;;;;14.57;64.35;100016.75;5072990;28;45491;-67
2022/09/27 08:59:12;;;;;;;;;3.00;3.00;;;;;14.61;63.84;100018.56;5072597;28;45396;-65
2022/09/27 09:01:38;;;;;;;;;2.00;2.00;;;;;14.66;64.22;100013.19;5073165;28;45393;-66
2022/09/27 09:04:04;;;;;;;;;4.00;3.00;;;;;14.63;65.18;99989.88;5073665;28;45841;-66
2022/09/27 09:06:48;;;;;;;;;1.00;1.00;;;;;14.76;64.16;100006.00;5072686;28;45552;-70
2022/09/27 09:09:43;;;;;;;;;1.00;1.00;;;;;14.70;64.33;100009.56;5068030;28;46171;-65
2022/09/27 09:15:19;;;;;;;;;4.00;2.67;;;;;14.77;64.53;100026.63;5073344;28;45717;-65
2022/09/27 09:18:22;;;;;;;;;2.00;2.00;;;;;14.76;63.80;100027.50;5072998;28;46309;-67
2022/09/27 09:21:25;;;;;;;;;22.75;22.50;;;;;14.83;64.33;100015.81;5067712;28;45662;-72
2022/09/27 09:24:21;;;;;;;;;3.33;3.33;;;;;14.86;64.07;100019.41;5072951;28;45242;-67
2022/09/27 09:27:01;;;;;;;;;2.00;2.00;;;;;14.43;64.07;99933.44;5072831;28;45528;-66
2022/09/27 09:29:50;;;;;;;;;3.00;2.67;;;;;15.02;64.21;100014.00;5051096;28;47437;-64
2022/09/27 09:32:24;;;;;;;;;1.33;1.33;;;;;15.05;63.28;100001.41;5067011;28;45357;-66
2022/09/27 09:35:24;;;;;;;;;2.00;2.00;;;;;15.05;62.90;99989.75;5073223;28;45477;-66
2022/09/27 09:37:59;;;;;;;;;5.67;2.00;;;;;15.30;62.17;99999.50;5072874;28;45540;-66
2022/09/27 09:40:46;;;;;;;;;3.00;1.67;;;;;15.52;61.59;99990.41;5071951;28;45516;-65
2022/09/27 09:43:16;;;;;;;;;5.00;2.00;;;;;15.75;60.78;99939.09;5068706;28;45456;-67
2022/09/27 09:45:46;;;;;;;;;1.33;1.33;;;;;16.25;58.02;99953.06;5072410;28;45505;-66
2022/09/27 09:48:14;;;;;;;;;5.00;3.00;;;;;16.38;56.90;99965.50;5093024;27;45508;-66
2022/09/27 09:50:46;;;;;;;;;3.33;1.67;;;;;16.19;55.92;99946.81;5096258;27;46642;-67
2022/09/27 09:53:36;;;;;;;;;3.67;2.00;;;;;16.28;56.13;99971.91;5096366;27;45326;-66
2022/09/27 09:56:06;;;;;;;;;2.00;0.00;;;;;16.33;55.97;99976.34;5096448;27;45364;-70
2022/09/27 09:58:42;;;;;;;;;0.00;0.00;;;;;16.28;55.25;99959.31;5090138;27;45311;-67
2022/09/27 10:01:18;;;;;;;;;1.33;1.33;;;;;16.18;55.37;99930.66;5096065;27;46300;-70
2022/09/27 10:03:44;;;;;;;;;4.67;1.33;;;;;16.25;55.18;99944.97;5096460;27;45502;-69
2022/09/27 10:06:13;;;;;;;;;0.67;0.67;;;;;16.26;54.62;99953.03;5096163;27;45301;-69
2022/09/27 10:08:38;;;;;;;;;4.67;2.33;;;;;16.28;55.31;99953.03;5096320;27;45484;-67
2022/09/27 10:11:05;;;;;;;;;1.67;1.67;;;;;16.25;55.41;99945.88;5095975;27;45396;-65
2022/09/27 10:13:34;;;;;;;;;7.33;4.67;;;;;16.31;55.54;99944.91;5096017;27;45316;-66
2022/09/27 10:16:07;;;;;;;;;4.00;0.67;;;;;16.40;55.16;99936.75;5096099;27;45460;-64
2022/09/27 10:18:37;;;;;;;;;2.00;2.00;;;;;16.48;54.05;99933.94;5095726;27;45541;-65
2022/09/27 10:21:09;;;;;;;;;0.67;0.67;;;;;16.38;53.32;99901.72;5095691;27;46041;-65
2022/09/27 10:23:36;;;;;;;;;3.00;1.67;;;;;16.59;52.28;99934.72;5081440;27;45456;-67
2022/09/27 10:26:04;;;;;;;;;3.33;1.67;;;;;16.37;51.71;99894.53;5093210;27;45601;-68
2022/09/27 10:28:43;;;;;;;;;3.67;1.33;;;;;16.53;52.23;99935.69;5096161;27;45710;-66
2022/09/27 10:31:12;;;;;;;;;1.67;1.67;;;;;16.36;51.99;99914.28;5095289;27;45572;-65
2022/09/27 10:33:55;;;;;;;;;1.33;1.33;;;;;16.16;51.51;99868.69;5095857;27;45486;-67
2022/09/27 10:36:26;;;;;;;;;1.00;1.00;;;;;16.51;51.81;99936.63;5095435;27;45408;-65
2022/09/27 10:38:53;;;;;;;;;1.00;1.00;;;;;16.34;51.38;99929.59;5089690;27;45516;-68
2022/09/27 10:41:32;;;;;;;;;2.00;2.00;;;;;16.36;51.95;99940.38;5088619;27;46237;-68
2022/09/27 10:44:19;;;;;;;;;0.00;0.00;;;;;16.19;52.02;99941.44;5090746;27;45372;-66
2022/09/27 10:46:48;;;;;;;;;2.00;1.33;;;;;16.16;53.38;99948.66;5095604;27;45398;-70
2022/09/27 10:49:31;;;;;;;;;1.00;1.00;;;;;16.05;54.11;99950.56;5095749;27;45555;-69
2022/09/27 10:52:01;;;;;;;;;0.00;0.00;;;;;15.87;54.70;99933.63;5088650;27;45417;-65
2022/09/27 10:54:27;;;;;;;;;1.00;1.00;;;;;15.86;56.38;99949.84;5093368;27;45564;-66
2022/09/27 10:57:18;;;;;;;;;5.33;3.33;;;;;15.74;59.17;99938.22;5094902;27;45473;-67
2022/09/27 10:59:50;;;;;;;;;6.00;6.00;;;;;15.75;61.18;99947.19;5086907;27;45714;-65
2022/09/27 11:02:28;;;;;;;;;4.67;4.00;;;;;15.58;61.76;99912.31;5095261;27;46491;-69
2022/09/27 11:05:10;;;;;;;;;5.67;5.33;;;;;15.73;63.08;99949.88;5093905;27;45395;-72
2022/09/27 11:07:36;;;;;;;;;4.00;4.00;;;;;15.40;62.97;99891.78;5094878;27;45436;-65
2022/09/27 11:10:21;;;;;;;;;4.33;3.00;;;;;15.70;62.47;99949.91;5088969;27;45271;-67
2022/09/27 11:13:05;;;;;;;;;3.00;2.00;;;;;15.64;62.61;99940.06;5089644;27;45796;-66
2022/09/27 11:15:39;;;;;;;;;1.67;1.67;;;;;15.75;61.79;99939.97;5095095;27;45620;-71
2022/09/27 11:18:29;;;;;;;;;5.67;5.67;;;;;15.73;62.06;99944.50;5095933;27;45448;-67
2022/09/27 11:21:10;;;;;;;;;1.33;1.00;;;;;15.66;61.53;99932.00;5091815;27;45289;-65
2022/09/27 11:23:54;;;;;;;;;5.33;4.00;;;;;15.72;61.98;99944.50;5096632;27;46619;-68
2022/09/27 11:26:40;;;;;;;;;1.00;1.00;;;;;15.63;61.18;99954.44;5095831;27;45617;-68
2022/09/27 11:29:31;;;;;;;;;2.33;2.33;;;;;15.57;61.50;99945.50;5089881;27;45282;-68
2022/09/27 11:32:03;;;;;;;;;4.00;4.00;;;;;15.56;61.55;99952.69;5095101;27;46243;-67
2022/09/27 11:34:55;;;;;;;;;5.33;3.00;;;;;15.56;62.63;99946.41;5094428;27;46323;-70
2022/09/27 11:37:33;;;;;;;;;3.67;2.33;;;;;15.35;61.85;99921.44;5091046;27;45610;-70
2022/09/27 11:40:04;;;;;;;;;2.67;2.00;;;;;15.43;61.42;99946.50;5094403;27;45476;-68
2022/09/27 11:42:41;;;;;;;;;2.33;2.33;;;;;14.97;61.55;99878.63;5094427;27;45579;-69
2022/09/27 11:45:35;;;;;;;;;3.00;1.00;;;;;15.30;60.71;99947.47;5094889;27;46871;-68
2022/09/27 11:48:21;;;;;;;;;5.00;3.67;;;;;14.99;61.68;99891.16;5074023;27;45473;-69
2022/09/27 11:51:25;;;;;;;;;6.00;4.33;;;;;15.39;61.83;99942.06;5073953;28;45332;-69
2022/09/27 11:53:59;;;;;;;;;3.33;3.33;;;;;15.50;61.01;99931.19;5069421;28;45571;-67
2022/09/27 11:56:31;;;;;;;;;5.00;3.00;;;;;15.52;60.84;99924.00;5073150;28;45502;-67
2022/09/27 11:59:15;;;;;;;;;2.33;2.33;;;;;15.53;60.44;99917.72;5073706;28;45558;-65